createdAt,value
2023-03-12T00:02:32.413Z,82.86
2023-03-12T00:06:33.781Z,82.57
2023-03-12T00:10:35.286Z,82.94
2023-03-12T00:14:36.647Z,82.46
2023-03-12T00:18:39.560Z,82.70
2023-03-12T00:22:41.069Z,83.15
2023-03-12T00:26:42.455Z,83.68
2023-03-12T00:30:43.857Z,83.75
2023-03-12T00:34:50.000Z,84.34
2023-03-12T00:38:51.462Z,84.26
2023-03-12T00:42:52.822Z,84.55
2023-03-12T00:46:54.172Z,84.74
2023-03-12T00:50:56.936Z,84.89
2023-03-12T00:54:58.373Z,84.44
2023-03-12T00:58:59.867Z,84.25
2023-03-12T01:03:01.257Z,84.42
2023-03-12T01:07:04.108Z,85.12
2023-03-12T01:11:05.694Z,84.58
2023-03-12T01:15:07.841Z,84.00
2023-03-12T01:19:09.209Z,84.34
2023-03-12T01:23:11.961Z,85.00
2023-03-12T01:27:13.391Z,84.34
2023-03-12T01:31:16.314Z,84.23
2023-03-12T01:35:17.809Z,83.48
2023-03-12T01:39:20.552Z,84.90
2023-03-12T01:43:27.099Z,84.96
2023-03-12T01:47:29.237Z,84.93
2023-03-12T01:51:32.106Z,84.81
2023-03-12T01:55:34.923Z,85.52
2023-03-12T01:59:38.748Z,84.92
2023-03-12T02:03:40.796Z,85.17
2023-03-12T02:07:42.274Z,85.37
2023-03-12T02:11:45.001Z,85.78
2023-03-12T02:15:46.503Z,85.18
2023-03-12T02:19:52.946Z,85.01
2023-03-12T02:23:58.529Z,85.09
2023-03-12T02:28:03.063Z,85.45
2023-03-12T02:32:05.787Z,85.38
2023-03-12T02:36:07.695Z,85.16
2023-03-12T02:40:13.326Z,86.04
2023-03-12T02:44:16.973Z,85.62
2023-03-12T02:48:18.323Z,85.86
2023-03-12T02:52:19.785Z,85.79
2023-03-12T02:56:21.779Z,85.77
2023-03-12T03:00:24.701Z,86.07
2023-03-12T03:04:26.598Z,85.49
2023-03-12T03:08:27.974Z,86.21
2023-03-12T03:12:29.516Z,85.95
2023-03-12T03:16:32.690Z,86.17
2023-03-12T03:20:34.046Z,86.72
2023-03-12T03:24:35.402Z,87.17
2023-03-12T03:28:36.774Z,86.77
2023-03-12T03:32:39.523Z,86.93
2023-03-12T03:36:40.907Z,86.89
2023-03-12T03:40:42.380Z,87.03
2023-03-12T03:44:43.784Z,87.34
2023-03-12T03:48:46.507Z,87.43
2023-03-12T03:52:47.866Z,88.07
2023-03-12T03:56:49.282Z,87.94
2023-03-12T04:00:50.843Z,87.87
2023-03-12T04:04:56.516Z,88.56
2023-03-12T04:08:57.923Z,88.13
2023-03-12T04:12:59.276Z,88.40
2023-03-12T04:17:00.717Z,87.83
2023-03-12T04:21:03.589Z,87.46
2023-03-12T04:25:06.271Z,87.86
2023-03-12T04:29:07.651Z,88.18
2023-03-12T04:33:09.007Z,87.71
2023-03-12T04:37:11.859Z,87.81
2023-03-12T04:41:14.371Z,87.77
2023-03-12T04:45:15.739Z,87.51
2023-03-12T04:49:17.124Z,87.27
2023-03-12T04:53:19.999Z,87.49
2023-03-12T04:57:21.768Z,87.46
2023-03-12T05:01:25.341Z,87.60
2023-03-12T05:05:26.684Z,87.81
2023-03-12T05:09:29.422Z,87.73
2023-03-12T05:13:30.770Z,87.71
2023-03-12T05:17:32.159Z,86.97
2023-03-12T05:21:33.554Z,85.71
2023-03-12T05:25:39.585Z,84.73
2023-03-12T05:29:40.951Z,85.92
2023-03-12T05:33:42.712Z,86.24
2023-03-12T05:37:44.083Z,86.90
2023-03-12T05:41:46.765Z,86.93
2023-03-12T05:45:48.213Z,87.29
2023-03-12T05:49:49.651Z,85.76
2023-03-12T05:53:51.029Z,84.91
2023-03-12T05:57:53.749Z,85.57
2023-03-12T06:01:55.131Z,85.07
2023-03-12T06:05:56.606Z,85.56
2023-03-12T06:09:58.110Z,84.39
2023-03-12T06:14:01.103Z,83.71
2023-03-12T06:18:02.443Z,83.81
2023-03-12T06:22:03.789Z,84.11
2023-03-12T06:26:05.532Z,83.60
2023-03-12T06:30:09.078Z,83.08
2023-03-12T06:34:10.447Z,82.84
2023-03-12T06:38:11.831Z,83.71
2023-03-12T06:42:13.195Z,82.40
2023-03-12T06:46:16.920Z,81.15
2023-03-12T06:50:18.423Z,80.47
2023-03-12T06:54:19.795Z,79.38
2023-03-12T06:58:21.206Z,79.45
2023-03-12T07:02:24.019Z,79.22
2023-03-12T07:06:25.459Z,78.95
2023-03-12T07:10:26.842Z,79.54
2023-03-12T07:14:28.202Z,78.95
2023-03-12T07:18:31.023Z,78.88
2023-03-12T07:22:32.356Z,77.88
2023-03-12T07:26:34.117Z,78.28
2023-03-12T07:30:35.537Z,77.50
2023-03-12T07:34:38.372Z,76.69
2023-03-12T07:38:39.737Z,76.00
2023-03-12T07:42:41.056Z,75.13
2023-03-12T07:46:42.494Z,74.50
2023-03-12T07:50:45.299Z,73.13
2023-03-12T07:54:46.865Z,71.75
2023-03-12T07:58:48.365Z,69.45
2023-03-12T08:02:50.307Z,67.50
2023-03-12T08:06:53.301Z,66.60
2023-03-12T08:10:55.077Z,66.77
2023-03-12T08:14:56.464Z,66.09
2023-03-12T08:18:58.000Z,63.39
2023-03-12T08:23:00.707Z,65.74
2023-03-12T08:27:02.076Z,65.27
2023-03-12T08:31:03.558Z,64.25
2023-03-12T08:35:05.256Z,63.90
2023-03-12T08:39:08.115Z,64.08
2023-03-12T08:43:09.470Z,61.46
2023-03-12T08:47:11.010Z,62.10
2023-03-12T08:51:13.439Z,63.62
2023-03-12T08:55:17.777Z,62.94
2023-03-12T08:59:19.573Z,62.41
2023-03-12T09:03:21.403Z,63.11
2023-03-12T09:07:22.915Z,62.17
2023-03-12T09:11:25.697Z,61.61
2023-03-12T09:15:27.126Z,61.50
2023-03-12T09:19:28.521Z,61.62
2023-03-12T09:23:29.864Z,61.64
2023-03-12T09:27:35.209Z,62.00
2023-03-12T09:31:36.618Z,64.15
2023-03-12T09:35:38.052Z,64.59
2023-03-12T09:39:39.401Z,64.09
2023-03-12T09:43:45.605Z,64.57
2023-03-12T09:47:48.741Z,65.72
2023-03-12T09:51:53.765Z,64.75
2023-03-12T09:55:56.352Z,64.60
2023-03-12T09:59:59.275Z,63.94
2023-03-12T10:04:07.387Z,64.63
2023-03-12T10:08:23.820Z,63.51
2023-03-12T10:12:34.448Z,62.03
2023-03-12T10:16:43.869Z,62.11
2023-03-12T10:21:01.455Z,62.97
2023-03-12T10:25:08.044Z,62.85
2023-03-12T10:29:12.974Z,63.14
2023-03-12T10:33:17.558Z,62.79
2023-03-12T10:37:22.425Z,61.08
2023-03-12T10:41:24.797Z,62.02
2023-03-12T10:45:27.551Z,62.08
2023-03-12T10:49:31.489Z,63.49
2023-03-12T10:53:33.518Z,62.62
2023-03-12T10:57:39.427Z,62.00
2023-03-12T11:01:47.489Z,60.59
2023-03-12T11:05:51.776Z,64.06
2023-03-12T11:10:14.127Z,64.02
2023-03-12T11:14:16.626Z,62.84
2023-03-12T11:18:22.750Z,63.87
2023-03-12T11:22:29.676Z,66.64
2023-03-12T11:26:32.010Z,66.61
2023-03-12T11:30:36.959Z,66.75
2023-03-12T11:34:39.470Z,67.80
2023-03-12T11:38:45.516Z,69.32
2023-03-12T11:42:56.593Z,70.22
2023-03-12T11:47:15.666Z,71.53
2023-03-12T11:51:22.128Z,73.40
2023-03-12T11:55:37.060Z,74.02
2023-03-12T11:59:46.636Z,72.67
2023-03-12T12:04:00.875Z,72.60
2023-03-12T12:08:12.409Z,73.84
2023-03-12T12:12:24.953Z,75.51
2023-03-12T12:16:31.972Z,76.10
2023-03-12T12:20:39.285Z,78.37
2023-03-12T12:24:52.399Z,79.00
2023-03-12T12:29:14.771Z,80.03
2023-03-12T12:33:20.608Z,79.11
2023-03-12T12:37:24.745Z,79.33
2023-03-12T12:41:27.130Z,79.01
2023-03-12T12:45:31.154Z,79.74
2023-03-12T12:49:35.957Z,80.17
2023-03-12T12:53:40.883Z,81.13
2023-03-12T12:57:44.852Z,80.52
2023-03-12T13:01:48.577Z,80.53
2023-03-12T13:05:54.788Z,81.35
2023-03-12T13:09:56.861Z,82.09
2023-03-12T13:14:13.105Z,81.66
2023-03-12T13:18:20.893Z,81.55
2023-03-12T13:22:27.042Z,81.00
2023-03-12T13:26:30.971Z,80.76
2023-03-12T13:30:45.709Z,80.40
2023-03-12T13:34:48.805Z,80.47
2023-03-12T13:38:54.598Z,79.94
2023-03-12T13:43:01.697Z,80.17
2023-03-12T13:47:04.254Z,80.82
2023-03-12T13:51:12.078Z,81.25
2023-03-12T13:55:18.004Z,82.54
2023-03-12T13:59:19.464Z,83.52
2023-03-12T14:03:23.288Z,85.30
2023-03-12T14:07:38.741Z,85.93
2023-03-12T14:11:46.092Z,86.91
2023-03-12T14:15:51.445Z,86.87
2023-03-12T14:19:57.160Z,87.80
2023-03-12T14:24:00.330Z,87.88
2023-03-12T14:28:02.602Z,88.44
2023-03-12T14:32:05.911Z,88.81
2023-03-12T14:36:11.665Z,89.35
2023-03-12T14:40:20.982Z,89.58
2023-03-12T14:44:23.291Z,89.24
2023-03-12T14:48:27.609Z,89.53
2023-03-12T14:52:29.469Z,91.28
2023-03-12T14:56:33.320Z,91.50
2023-03-12T15:00:35.020Z,92.54
2023-03-12T15:04:36.542Z,93.79
2023-03-12T15:08:39.557Z,94.00
2023-03-12T15:12:45.128Z,93.62
2023-03-12T15:16:46.624Z,93.64
2023-03-12T15:20:49.136Z,93.69
2023-03-12T15:24:50.912Z,94.35
2023-03-12T15:28:57.143Z,94.76
2023-03-12T15:33:06.095Z,94.21
2023-03-12T15:37:20.606Z,95.60
2023-03-12T15:41:23.159Z,95.35
2023-03-12T15:45:30.391Z,94.99
2023-03-12T15:49:34.196Z,95.06
2023-03-12T15:53:35.575Z,94.92
2023-03-12T15:57:45.108Z,95.26
2023-03-12T16:01:48.602Z,95.07
2023-03-12T16:05:50.459Z,94.88
2023-03-12T16:09:51.810Z,95.50
2023-03-12T16:13:57.241Z,95.48
2023-03-12T16:18:00.085Z,95.56
2023-03-12T16:22:01.439Z,95.04
2023-03-12T16:26:04.589Z,94.58
2023-03-12T16:30:07.301Z,94.41
2023-03-12T16:34:11.123Z,94.15
2023-03-12T16:38:12.582Z,93.83
2023-03-12T16:42:15.624Z,93.38
2023-03-12T16:46:19.324Z,93.48
2023-03-12T16:50:22.386Z,93.65
2023-03-12T16:54:23.848Z,93.59
2023-03-12T16:58:26.684Z,93.78
2023-03-12T17:02:28.099Z,94.21
2023-03-12T17:06:30.827Z,94.26
2023-03-12T17:10:32.146Z,94.54
2023-03-12T17:14:33.511Z,94.65
2023-03-12T17:18:34.861Z,94.85
2023-03-12T17:22:37.562Z,95.49
2023-03-12T17:26:38.902Z,95.59
2023-03-12T17:30:40.226Z,95.77
2023-03-12T17:34:41.574Z,95.80
2023-03-12T17:38:44.503Z,95.62
2023-03-12T17:42:45.878Z,95.86
2023-03-12T17:46:58.818Z,95.74
2023-03-12T17:51:04.680Z,95.36
2023-03-12T17:55:09.874Z,95.74
2023-03-12T17:59:12.419Z,95.86
2023-03-12T18:03:13.830Z,95.33
2023-03-12T18:07:15.357Z,95.47
2023-03-12T18:11:18.041Z,95.63
2023-03-12T18:15:19.388Z,95.67
2023-03-12T18:19:20.736Z,95.70
2023-03-12T18:23:22.130Z,95.84
2023-03-12T18:27:24.857Z,95.64
2023-03-12T18:31:26.235Z,95.85
2023-03-12T18:35:27.763Z,95.59
2023-03-12T18:39:29.191Z,95.21
2023-03-12T18:43:32.141Z,94.83
2023-03-12T18:47:33.497Z,95.30
2023-03-12T18:51:34.925Z,95.29
2023-03-12T18:55:36.302Z,95.59
2023-03-12T18:59:39.004Z,95.91
2023-03-12T19:03:40.355Z,96.39
2023-03-12T19:07:41.745Z,96.46
2023-03-12T19:11:43.205Z,96.39
2023-03-12T19:15:45.929Z,96.46
2023-03-12T19:19:47.366Z,96.54
2023-03-12T19:23:48.745Z,96.70
2023-03-12T19:27:50.106Z,97.08
2023-03-12T19:31:52.869Z,97.11
2023-03-12T19:35:54.594Z,97.38
2023-03-12T19:39:56.104Z,97.22
2023-03-12T19:43:57.487Z,97.33
2023-03-12T19:48:00.249Z,97.26
2023-03-12T19:52:01.614Z,97.57
2023-03-12T19:56:03.447Z,96.79
2023-03-12T20:00:05.436Z,96.85
2023-03-12T20:04:08.365Z,96.91
2023-03-12T20:08:09.710Z,97.08
2023-03-12T20:12:11.044Z,97.20
2023-03-12T20:16:12.465Z,97.28
2023-03-12T20:20:15.213Z,97.21
2023-03-12T20:24:16.559Z,96.11
2023-03-12T20:28:17.986Z,95.69
2023-03-12T20:32:19.395Z,96.07
2023-03-12T20:36:22.160Z,95.61
2023-03-12T20:40:23.506Z,94.64
2023-03-12T20:44:24.857Z,95.26
2023-03-12T20:48:26.180Z,95.46
2023-03-12T20:52:28.868Z,95.57
2023-03-12T20:56:30.218Z,95.11
2023-03-12T21:00:31.710Z,95.88
2023-03-12T21:04:33.036Z,96.36
2023-03-12T21:08:35.761Z,96.79
2023-03-12T21:12:37.096Z,97.10
2023-03-12T21:16:38.522Z,97.28
2023-03-12T21:20:39.968Z,97.19
2023-03-12T21:24:42.657Z,97.25
2023-03-12T21:28:44.104Z,97.35
2023-03-12T21:32:45.478Z,97.72
2023-03-12T21:36:47.112Z,97.67
2023-03-12T21:40:49.815Z,97.65
2023-03-12T21:44:51.168Z,97.68
2023-03-12T21:48:52.545Z,97.81
2023-03-12T21:52:53.917Z,97.86
2023-03-12T21:56:56.608Z,97.34
2023-03-12T22:01:04.858Z,97.62
2023-03-12T22:05:06.841Z,96.95
2023-03-12T22:09:08.199Z,96.87
2023-03-12T22:13:10.878Z,96.27
2023-03-12T22:17:12.215Z,96.05
2023-03-12T22:21:14.746Z,95.75
2023-03-12T22:25:16.230Z,95.86
2023-03-12T22:29:18.907Z,95.52
2023-03-12T22:33:20.278Z,95.73
2023-03-12T22:37:21.685Z,95.08
2023-03-12T22:41:24.037Z,94.97
2023-03-12T22:45:26.714Z,95.01
2023-03-12T22:49:28.091Z,95.47
2023-03-12T22:53:29.532Z,95.85
2023-03-12T22:57:32.981Z,95.70
2023-03-12T23:01:35.700Z,95.14
2023-03-12T23:05:37.060Z,95.14
2023-03-12T23:09:38.488Z,94.96
2023-03-12T23:13:41.029Z,94.66
2023-03-12T23:17:43.716Z,95.14
2023-03-12T23:21:45.079Z,95.27
2023-03-12T23:25:51.644Z,95.24
2023-03-12T23:29:52.993Z,95.24
2023-03-12T23:33:56.004Z,95.36
2023-03-12T23:37:57.464Z,94.73
2023-03-12T23:41:58.816Z,94.70
2023-03-12T23:46:00.828Z,94.79
2023-03-12T23:50:03.734Z,94.41
2023-03-12T23:54:05.157Z,93.96
2023-03-12T23:58:06.536Z,94.19
